Hallwood, California
Current Conditions -  °F | °C
As of 11:58 PM on Friday 24 Oct 2014 (Local Time) from KBAB Reporting Station
Clear Clear  
Wind Chill: 62°   Ceiling: Unl
Heat Index: 62°   Visibility: 10mi
Dew Point: 53°   Wind: 13mph
Humidity: 73%   Direction: 150°SSE
Pressure: 29.89"   Gusts: NA
Location:  39.1912°N, 121.489°W
Report Text: KBAB 250658Z AUTO 15011KT 10SM CLR 17/12 A2989 RMK AO2 SLP197 T01660117 $
Loading
Personal Weather Stations






























Interactive Weather Map
Tropical Storm Tracking
New forecast layout! Learn more

10-Day Weather Forecast

Advertisements
Track Severe Weather on mobile